Pagrindinis puslapis
METAR-TAF:

METAR-TAF

Oro uostai :

Tôlanaro, Madagaskaras

platuma: 25-02S, ilguma: 046-57E, Aukštis: 8 m

Dabartinis oras

Ataskaita buvo paskelbta 55 minutes, ne 14:00 UTC
Vėjas 12 kt iš Vakarų
Temperatūra 23°C
Drėgmė 73%
Slėgis 1018 hPa
Matomumas 10 km arba daugiau
Mažai debesys ne aukštis 2000 ft

METAR: FMSD 171400Z 28012KT 9999 FEW020 23/18 Q1018

Laikas: 17:55 (14:55 UTC)

Prognozė

Ataskaita buvo paskelbta 3 valandos ir 55 minutes, ne 11:00 UTC
Prognozė galioja nuo 17 metu 12 UTC su 18 metu 12 UTC
Vėjas 13 kt iš Vakarų/Pietvakarių
Matomumas 10 km arba daugiau
Mažai debesys ne aukštis 1700 ft
Išsisklaidę debesys ne aukštis 3300 ft
Tikimybė 40% :
Laikinai
nuo 18 metu 00 UTC su 18 metu 12 UTC
Matomumas: 4000 m
lietus
Tapsmas
nuo 18 metu 03 UTC su 18 metu 06 UTC
Vėjas 10 kt iš Pietų/Pietryčių

TAF: FMSD 171100Z 1712/1812 24013KT 9999 FEW017 SCT033 PROB40 TEMPO 1800/1812 4000 SHRA BECMG 1803/1806 16010KT

Orai ataskaitas ir orų prognozės (METAR, TAF).

turimą stotys yra geltonos ir raudonos taškus žemėlapyje.

Perkelti pele per norėdami pamatyti stoties vardą.

Tada spustelėkite, norėdami matyti oro stebėjimo ir prognozės.

Norėdami pakeisti žemėlapį: spustelėkite ant žalios mygtukų su juodo kryžiaus žemyn,; žalią mygtuką su brūkšneliu, jei norite nutolinti; arba žalių rodyklių gretimoms žemėlapius.


METAR-TAF: